sensor_id;sensor_type;location;lat;lon;timestamp;P1;durP1;ratioP1;P2;durP2;ratioP2
44664;SDS011;30382;48.802;9.388;2023-03-01T04:31:08;30.23;;;18.53;;
44664;SDS011;30382;48.802;9.388;2023-03-01T04:34:03;25.40;;;17.20;;
44664;SDS011;30382;48.802;9.388;2023-03-01T04:36:51;35.40;;;18.60;;
44664;SDS011;30382;48.802;9.388;2023-03-01T04:43:44;27.17;;;16.50;;
44664;SDS011;30382;48.802;9.388;2023-03-01T04:47:25;26.70;;;16.70;;
44664;SDS011;30382;48.802;9.388;2023-03-01T04:50:44;28.70;;;17.83;;
44664;SDS011;30382;48.802;9.388;2023-03-01T04:53:31;29.03;;;16.43;;
44664;SDS011;30382;48.802;9.388;2023-03-01T04:59:11;23.93;;;16.17;;
44664;SDS011;30382;48.802;9.388;2023-03-01T05:01:59;26.33;;;17.80;;
44664;SDS011;30382;48.802;9.388;2023-03-01T05:09:06;31.17;;;17.23;;
44664;SDS011;30382;48.802;9.388;2023-03-01T05:11:50;26.93;;;17.50;;
44664;SDS011;30382;48.802;9.388;2023-03-01T05:14:35;25.43;;;16.30;;
44664;SDS011;30382;48.802;9.388;2023-03-01T05:17:20;29.03;;;17.90;;
44664;SDS011;30382;48.802;9.388;2023-03-01T05:20:04;23.80;;;16.60;;
44664;SDS011;30382;48.802;9.388;2023-03-01T05:22:58;28.63;;;16.60;;
44664;SDS011;30382;48.802;9.388;2023-03-01T05:28:27;27.77;;;17.27;;
44664;SDS011;30382;48.802;9.388;2023-03-01T05:31:12;28.10;;;17.20;;
44664;SDS011;30382;48.802;9.388;2023-03-01T05:36:41;28.37;;;17.97;;
44664;SDS011;30382;48.802;9.388;2023-03-01T05:39:26;34.37;;;19.87;;
44664;SDS011;30382;48.802;9.388;2023-03-01T05:44:54;27.90;;;17.80;;
44664;SDS011;30382;48.802;9.388;2023-03-01T05:47:39;29.33;;;17.90;;
44664;SDS011;30382;48.802;9.388;2023-03-01T05:50:28;24.93;;;16.87;;
44664;SDS011;30382;48.802;9.388;2023-03-01T05:53:13;31.53;;;18.27;;
44664;SDS011;30382;48.802;9.388;2023-03-01T05:55:58;24.47;;;16.10;;
44664;SDS011;30382;48.802;9.388;2023-03-01T05:58:42;28.70;;;18.50;;
44664;SDS011;30382;48.802;9.388;2023-03-01T06:01:27;31.57;;;16.50;;
44664;SDS011;30382;48.802;9.388;2023-03-01T06:04:11;27.37;;;17.73;;
44664;SDS011;30382;48.802;9.388;2023-03-01T06:06:55;26.27;;;17.80;;
44664;SDS011;30382;48.802;9.388;2023-03-01T06:09:40;23.80;;;16.93;;
44664;SDS011;30382;48.802;9.388;2023-03-01T06:17:54;30.47;;;17.90;;
44664;SDS011;30382;48.802;9.388;2023-03-01T06:26:10;30.57;;;20.57;;
44664;SDS011;30382;48.802;9.388;2023-03-01T06:28:54;37.53;;;17.60;;
44664;SDS011;30382;48.802;9.388;2023-03-01T06:31:38;22.03;;;16.60;;
44664;SDS011;30382;48.802;9.388;2023-03-01T06:34:23;32.00;;;17.77;;
44664;SDS011;30382;48.802;9.388;2023-03-01T06:37:07;28.07;;;17.53;;
44664;SDS011;30382;48.802;9.388;2023-03-01T06:39:51;32.40;;;18.43;;
44664;SDS011;30382;48.802;9.388;2023-03-01T06:45:20;28.43;;;18.63;;
44664;SDS011;30382;48.802;9.388;2023-03-01T06:48:05;27.27;;;16.90;;
44664;SDS011;30382;48.802;9.388;2023-03-01T06:50:50;25.07;;;17.57;;
44664;SDS011;30382;48.802;9.388;2023-03-01T06:53:34;33.00;;;18.67;;
44664;SDS011;30382;48.802;9.388;2023-03-01T06:56:19;29.87;;;19.40;;
44664;SDS011;30382;48.802;9.388;2023-03-01T06:59:03;29.20;;;17.20;;
44664;SDS011;30382;48.802;9.388;2023-03-01T07:01:47;26.40;;;18.30;;
44664;SDS011;30382;48.802;9.388;2023-03-01T07:04:31;25.80;;;19.77;;
44664;SDS011;30382;48.802;9.388;2023-03-01T07:07:16;29.73;;;17.40;;
44664;SDS011;30382;48.802;9.388;2023-03-01T07:10:02;30.27;;;20.30;;
44664;SDS011;30382;48.802;9.388;2023-03-01T07:12:46;27.13;;;19.10;;
44664;SDS011;30382;48.802;9.388;2023-03-01T07:15:30;26.70;;;17.73;;
44664;SDS011;30382;48.802;9.388;2023-03-01T07:18:14;35.23;;;19.40;;
44664;SDS011;30382;48.802;9.388;2023-03-01T07:21:03;27.70;;;19.10;;
44664;SDS011;30382;48.802;9.388;2023-03-01T07:23:48;26.60;;;18.23;;
44664;SDS011;30382;48.802;9.388;2023-03-01T07:26:32;29.70;;;18.40;;
44664;SDS011;30382;48.802;9.388;2023-03-01T07:29:17;26.30;;;17.90;;
44664;SDS011;30382;48.802;9.388;2023-03-01T07:32:02;24.57;;;16.70;;
44664;SDS011;30382;48.802;9.388;2023-03-01T07:34:47;28.97;;;18.90;;
44664;SDS011;30382;48.802;9.388;2023-03-01T07:37:31;29.50;;;18.23;;
44664;SDS011;30382;48.802;9.388;2023-03-01T07:48:29;34.47;;;18.77;;
44664;SDS011;30382;48.802;9.388;2023-03-01T07:53:58;30.20;;;19.10;;
44664;SDS011;30382;48.802;9.388;2023-03-01T07:56:42;27.90;;;17.67;;
44664;SDS011;30382;48.802;9.388;2023-03-01T08:02:12;30.13;;;19.00;;
44664;SDS011;30382;48.802;9.388;2023-03-01T08:07:43;30.13;;;18.90;;
44664;SDS011;30382;48.802;9.388;2023-03-01T08:13:11;25.03;;;17.80;;
44664;SDS011;30382;48.802;9.388;2023-03-01T08:16:03;27.27;;;18.60;;
44664;SDS011;30382;48.802;9.388;2023-03-01T08:18:47;32.30;;;19.63;;
44664;SDS011;30382;48.802;9.388;2023-03-01T08:21:32;27.10;;;17.00;;
44664;SDS011;30382;48.802;9.388;2023-03-01T08:24:18;29.63;;;18.53;;
44664;SDS011;30382;48.802;9.388;2023-03-01T08:29:47;27.20;;;18.50;;
44664;SDS011;30382;48.802;9.388;2023-03-01T08:32:35;41.13;;;19.40;;
44664;SDS011;30382;48.802;9.388;2023-03-01T08:35:19;28.47;;;18.60;;
44664;SDS011;30382;48.802;9.388;2023-03-01T08:38:04;24.00;;;17.27;;
44664;SDS011;30382;48.802;9.388;2023-03-01T08:40:48;29.43;;;17.17;;
44664;SDS011;30382;48.802;9.388;2023-03-01T08:43:33;27.03;;;18.53;;
44664;SDS011;30382;48.802;9.388;2023-03-01T08:46:17;27.20;;;19.40;;
44664;SDS011;30382;48.802;9.388;2023-03-01T08:49:05;29.00;;;17.30;;
44664;SDS011;30382;48.802;9.388;2023-03-01T10:33:20;26.07;;;16.17;;
44664;SDS011;30382;48.802;9.388;2023-03-01T10:36:05;18.47;;;15.30;;
44664;SDS011;30382;48.802;9.388;2023-03-01T10:41:37;21.10;;;14.80;;
44664;SDS011;30382;48.802;9.388;2023-03-01T10:44:35;24.17;;;15.60;;
44664;SDS011;30382;48.802;9.388;2023-03-01T10:47:23;22.10;;;16.80;;
44664;SDS011;30382;48.802;9.388;2023-03-01T10:50:19;21.25;;;16.50;;
44664;SDS011;30382;48.802;9.388;2023-03-01T10:53:04;23.60;;;16.53;;
44664;SDS011;30382;48.802;9.388;2023-03-01T10:55:48;20.60;;;16.70;;
44664;SDS011;30382;48.802;9.388;2023-03-01T10:58:59;19.57;;;14.90;;
44664;SDS011;30382;48.802;9.388;2023-03-01T11:01:44;17.73;;;15.33;;
44664;SDS011;30382;48.802;9.388;2023-03-01T11:10:29;17.77;;;15.73;;
44664;SDS011;30382;48.802;9.388;2023-03-01T11:13:23;18.87;;;15.90;;
44664;SDS011;30382;48.802;9.388;2023-03-01T11:16:36;21.07;;;15.97;;
44664;SDS011;30382;48.802;9.388;2023-03-01T11:19:41;24.93;;;16.43;;
44664;SDS011;30382;48.802;9.388;2023-03-01T11:22:31;17.20;;;14.90;;
44664;SDS011;30382;48.802;9.388;2023-03-01T11:25:19;16.77;;;14.80;;
44664;SDS011;30382;48.802;9.388;2023-03-01T11:28:07;18.83;;;15.07;;
44664;SDS011;30382;48.802;9.388;2023-03-01T11:31:05;17.97;;;14.97;;
44664;SDS011;30382;48.802;9.388;2023-03-01T11:34:08;17.80;;;15.10;;
44664;SDS011;30382;48.802;9.388;2023-03-01T11:36:58;16.90;;;14.67;;
44664;SDS011;30382;48.802;9.388;2023-03-01T11:39:54;16.93;;;14.90;;
44664;SDS011;30382;48.802;9.388;2023-03-01T11:42:57;16.80;;;14.80;;
44664;SDS011;30382;48.802;9.388;2023-03-01T11:56:31;17.47;;;15.67;;
44664;SDS011;30382;48.802;9.388;2023-03-01T12:05:54;18.73;;;16.17;;
44664;SDS011;30382;48.802;9.388;2023-03-01T12:20:20;17.57;;;14.60;;
44664;SDS011;30382;48.802;9.388;2023-03-01T12:32:21;15.80;;;14.20;;
44664;SDS011;30382;48.802;9.388;2023-03-01T12:55:06;23.67;;;15.87;;
44664;SDS011;30382;48.802;9.388;2023-03-01T13:09:08;17.63;;;15.70;;
44664;SDS011;30382;48.802;9.388;2023-03-01T13:20:17;15.43;;;13.90;;
44664;SDS011;30382;48.802;9.388;2023-03-01T13:44:02;15.03;;;13.53;;
44664;SDS011;30382;48.802;9.388;2023-03-01T13:47:19;13.10;;;11.90;;
44664;SDS011;30382;48.802;9.388;2023-03-01T13:50:14;14.00;;;12.50;;
44664;SDS011;30382;48.802;9.388;2023-03-01T13:53:10;16.00;;;14.40;;
44664;SDS011;30382;48.802;9.388;2023-03-01T13:56:00;17.53;;;15.90;;
44664;SDS011;30382;48.802;9.388;2023-03-01T14:02:18;20.20;;;16.77;;
44664;SDS011;30382;48.802;9.388;2023-03-01T14:12:51;24.90;;;17.13;;
44664;SDS011;30382;48.802;9.388;2023-03-01T14:15:39;19.97;;;16.60;;
44664;SDS011;30382;48.802;9.388;2023-03-01T14:18:34;20.93;;;16.13;;
44664;SDS011;30382;48.802;9.388;2023-03-01T14:21:24;19.27;;;14.30;;
44664;SDS011;30382;48.802;9.388;2023-03-01T14:27:26;20.00;;;15.67;;
44664;SDS011;30382;48.802;9.388;2023-03-01T14:30:51;18.80;;;16.80;;
44664;SDS011;30382;48.802;9.388;2023-03-01T14:34:02;22.77;;;15.90;;
44664;SDS011;30382;48.802;9.388;2023-03-01T14:36:47;24.40;;;15.50;;
44664;SDS011;30382;48.802;9.388;2023-03-01T14:42:44;24.93;;;17.00;;
44664;SDS011;30382;48.802;9.388;2023-03-01T14:45:46;20.83;;;14.90;;
44664;SDS011;30382;48.802;9.388;2023-03-01T14:48:31;26.20;;;16.30;;
44664;SDS011;30382;48.802;9.388;2023-03-01T14:51:21;18.40;;;15.00;;
44664;SDS011;30382;48.802;9.388;2023-03-01T15:00:55;21.00;;;13.23;;
44664;SDS011;30382;48.802;9.388;2023-03-01T15:03:43;24.77;;;16.80;;
44664;SDS011;30382;48.802;9.388;2023-03-01T15:06:29;24.70;;;15.40;;
44664;SDS011;30382;48.802;9.388;2023-03-01T15:10:17;22.23;;;16.27;;
44664;SDS011;30382;48.802;9.388;2023-03-01T15:13:25;20.90;;;14.90;;
44664;SDS011;30382;48.802;9.388;2023-03-01T15:16:33;23.33;;;15.67;;
44664;SDS011;30382;48.802;9.388;2023-03-01T15:19:19;18.20;;;14.37;;
44664;SDS011;30382;48.802;9.388;2023-03-01T15:22:31;20.57;;;15.80;;
44664;SDS011;30382;48.802;9.388;2023-03-01T15:25:19;20.80;;;14.60;;
44664;SDS011;30382;48.802;9.388;2023-03-01T15:28:05;18.33;;;14.03;;
44664;SDS011;30382;48.802;9.388;2023-03-01T15:31:00;21.13;;;13.93;;
44664;SDS011;30382;48.802;9.388;2023-03-01T15:33:45;18.57;;;13.33;;
44664;SDS011;30382;48.802;9.388;2023-03-01T15:36:35;19.53;;;15.27;;
44664;SDS011;30382;48.802;9.388;2023-03-01T15:45:20;20.40;;;16.33;;
44664;SDS011;30382;48.802;9.388;2023-03-01T15:48:05;19.27;;;13.53;;
44664;SDS011;30382;48.802;9.388;2023-03-01T15:50:58;21.73;;;15.73;;
44664;SDS011;30382;48.802;9.388;2023-03-01T15:53:44;21.83;;;15.70;;
44664;SDS011;30382;48.802;9.388;2023-03-01T15:56:32;22.37;;;16.27;;
44664;SDS011;30382;48.802;9.388;2023-03-01T15:59:16;18.90;;;16.40;;
44664;SDS011;30382;48.802;9.388;2023-03-01T16:02:01;24.53;;;15.43;;
44664;SDS011;30382;48.802;9.388;2023-03-01T16:04:46;20.83;;;14.90;;
44664;SDS011;30382;48.802;9.388;2023-03-01T16:07:30;22.53;;;15.50;;
44664;SDS011;30382;48.802;9.388;2023-03-01T16:10:15;22.70;;;14.70;;
44664;SDS011;30382;48.802;9.388;2023-03-01T16:13:00;23.63;;;17.30;;
44664;SDS011;30382;48.802;9.388;2023-03-01T16:15:44;19.77;;;14.43;;
44664;SDS011;30382;48.802;9.388;2023-03-01T16:18:29;23.93;;;17.73;;
44664;SDS011;30382;48.802;9.388;2023-03-01T16:23:59;25.50;;;16.23;;
44664;SDS011;30382;48.802;9.388;2023-03-01T16:26:45;23.37;;;15.63;;
44664;SDS011;30382;48.802;9.388;2023-03-01T16:32:17;22.10;;;15.73;;
44664;SDS011;30382;48.802;9.388;2023-03-01T16:35:01;26.00;;;17.13;;
44664;SDS011;30382;48.802;9.388;2023-03-01T16:37:46;20.83;;;15.03;;
44664;SDS011;30382;48.802;9.388;2023-03-01T16:40:31;18.53;;;14.57;;
44664;SDS011;30382;48.802;9.388;2023-03-01T16:43:15;21.80;;;15.93;;
44664;SDS011;30382;48.802;9.388;2023-03-01T16:46:00;24.30;;;17.20;;
44664;SDS011;30382;48.802;9.388;2023-03-01T16:48:45;21.87;;;14.93;;
44664;SDS011;30382;48.802;9.388;2023-03-01T16:51:30;20.20;;;13.97;;
44664;SDS011;30382;48.802;9.388;2023-03-01T16:54:14;21.80;;;15.77;;
44664;SDS011;30382;48.802;9.388;2023-03-01T16:56:59;20.10;;;13.70;;
44664;SDS011;30382;48.802;9.388;2023-03-01T16:59:43;22.70;;;16.23;;
44664;SDS011;30382;48.802;9.388;2023-03-01T17:07:58;25.67;;;14.80;;
44664;SDS011;30382;48.802;9.388;2023-03-01T17:13:28;24.50;;;15.43;;
44664;SDS011;30382;48.802;9.388;2023-03-01T17:24:25;24.50;;;16.23;;
44664;SDS011;30382;48.802;9.388;2023-03-01T18:00:08;21.45;;;15.25;;
44664;SDS011;30382;48.802;9.388;2023-03-01T18:02:58;20.67;;;15.60;;
44664;SDS011;30382;48.802;9.388;2023-03-01T18:05:42;25.77;;;16.70;;
44664;SDS011;30382;48.802;9.388;2023-03-01T18:08:26;24.87;;;16.97;;
44664;SDS011;30382;48.802;9.388;2023-03-01T18:11:12;26.23;;;16.87;;
44664;SDS011;30382;48.802;9.388;2023-03-01T18:13:56;27.70;;;18.47;;
44664;SDS011;30382;48.802;9.388;2023-03-01T18:16:40;25.30;;;18.47;;
44664;SDS011;30382;48.802;9.388;2023-03-01T18:19:25;27.50;;;16.13;;
44664;SDS011;30382;48.802;9.388;2023-03-01T18:22:09;26.90;;;16.97;;
44664;SDS011;30382;48.802;9.388;2023-03-01T18:24:53;26.50;;;15.70;;
44664;SDS011;30382;48.802;9.388;2023-03-01T18:27:38;25.00;;;15.80;;
44664;SDS011;30382;48.802;9.388;2023-03-01T18:30:22;29.55;;;17.90;;
44664;SDS011;30382;48.802;9.388;2023-03-01T18:33:06;24.55;;;17.30;;
44664;SDS011;30382;48.802;9.388;2023-03-01T18:35:51;27.27;;;17.90;;
44664;SDS011;30382;48.802;9.388;2023-03-01T18:38:35;23.23;;;15.33;;
44664;SDS011;30382;48.802;9.388;2023-03-01T18:41:19;34.67;;;17.60;;
44664;SDS011;30382;48.802;9.388;2023-03-01T18:44:04;27.50;;;16.80;;
44664;SDS011;30382;48.802;9.388;2023-03-01T18:46:49;25.20;;;17.67;;
44664;SDS011;30382;48.802;9.388;2023-03-01T18:49:33;26.07;;;17.00;;
44664;SDS011;30382;48.802;9.388;2023-03-01T18:52:18;22.10;;;16.77;;
44664;SDS011;30382;48.802;9.388;2023-03-01T18:55:02;26.13;;;16.17;;
44664;SDS011;30382;48.802;9.388;2023-03-01T18:57:46;28.63;;;16.40;;
44664;SDS011;30382;48.802;9.388;2023-03-01T19:00:31;23.40;;;14.93;;
44664;SDS011;30382;48.802;9.388;2023-03-01T19:03:15;25.10;;;17.40;;
44664;SDS011;30382;48.802;9.388;2023-03-01T19:06:00;26.50;;;18.33;;
44664;SDS011;30382;48.802;9.388;2023-03-01T19:08:45;29.33;;;16.90;;
44664;SDS011;30382;48.802;9.388;2023-03-01T19:11:29;31.90;;;20.50;;
44664;SDS011;30382;48.802;9.388;2023-03-01T19:14:18;25.80;;;17.63;;
44664;SDS011;30382;48.802;9.388;2023-03-01T19:17:02;21.60;;;14.40;;
44664;SDS011;30382;48.802;9.388;2023-03-01T19:19:47;21.50;;;14.33;;
44664;SDS011;30382;48.802;9.388;2023-03-01T19:22:33;18.53;;;13.70;;
44664;SDS011;30382;48.802;9.388;2023-03-01T19:25:17;24.07;;;16.07;;
44664;SDS011;30382;48.802;9.388;2023-03-01T19:28:01;28.60;;;16.70;;
44664;SDS011;30382;48.802;9.388;2023-03-01T19:30:46;26.10;;;17.70;;
44664;SDS011;30382;48.802;9.388;2023-03-01T19:33:31;27.53;;;16.57;;
44664;SDS011;30382;48.802;9.388;2023-03-01T19:36:16;24.60;;;16.43;;
44664;SDS011;30382;48.802;9.388;2023-03-01T19:39:05;24.30;;;14.83;;
44664;SDS011;30382;48.802;9.388;2023-03-01T19:41:49;24.67;;;14.27;;
44664;SDS011;30382;48.802;9.388;2023-03-01T19:44:33;22.03;;;15.37;;
44664;SDS011;30382;48.802;9.388;2023-03-01T19:47:18;26.10;;;17.00;;
44664;SDS011;30382;48.802;9.388;2023-03-01T19:50:02;24.10;;;15.03;;
44664;SDS011;30382;48.802;9.388;2023-03-01T19:52:47;20.90;;;14.40;;
44664;SDS011;30382;48.802;9.388;2023-03-01T19:55:31;23.60;;;14.20;;
44664;SDS011;30382;48.802;9.388;2023-03-01T19:58:18;25.70;;;17.10;;
44664;SDS011;30382;48.802;9.388;2023-03-01T20:01:03;18.27;;;14.10;;
44664;SDS011;30382;48.802;9.388;2023-03-01T20:03:47;20.47;;;14.90;;
44664;SDS011;30382;48.802;9.388;2023-03-01T20:06:32;31.20;;;16.37;;
44664;SDS011;30382;48.802;9.388;2023-03-01T20:09:16;24.33;;;15.73;;
44664;SDS011;30382;48.802;9.388;2023-03-01T20:12:01;24.27;;;15.30;;
44664;SDS011;30382;48.802;9.388;2023-03-01T20:14:45;26.10;;;16.27;;
44664;SDS011;30382;48.802;9.388;2023-03-01T20:17:31;23.13;;;14.97;;
44664;SDS011;30382;48.802;9.388;2023-03-01T20:20:16;22.57;;;15.17;;
44664;SDS011;30382;48.802;9.388;2023-03-01T20:23:00;25.93;;;14.93;;
44664;SDS011;30382;48.802;9.388;2023-03-01T20:25:45;27.57;;;15.63;;
44664;SDS011;30382;48.802;9.388;2023-03-01T20:28:29;27.40;;;18.00;;
44664;SDS011;30382;48.802;9.388;2023-03-01T20:31:14;59.17;;;27.73;;
44664;SDS011;30382;48.802;9.388;2023-03-01T20:33:59;52.63;;;27.50;;
44664;SDS011;30382;48.802;9.388;2023-03-01T20:36:43;48.70;;;26.50;;
44664;SDS011;30382;48.802;9.388;2023-03-01T20:39:28;40.83;;;19.63;;
44664;SDS011;30382;48.802;9.388;2023-03-01T20:42:12;40.07;;;19.83;;
44664;SDS011;30382;48.802;9.388;2023-03-01T20:44:56;36.13;;;20.20;;
44664;SDS011;30382;48.802;9.388;2023-03-01T20:47:40;36.30;;;19.80;;
44664;SDS011;30382;48.802;9.388;2023-03-01T20:50:24;33.57;;;20.33;;
44664;SDS011;30382;48.802;9.388;2023-03-01T20:53:09;30.17;;;20.13;;
44664;SDS011;30382;48.802;9.388;2023-03-01T20:55:53;25.33;;;18.17;;
44664;SDS011;30382;48.802;9.388;2023-03-01T20:58:38;23.67;;;17.40;;
44664;SDS011;30382;48.802;9.388;2023-03-01T21:01:22;27.70;;;17.87;;
44664;SDS011;30382;48.802;9.388;2023-03-01T21:04:07;23.80;;;16.23;;
44664;SDS011;30382;48.802;9.388;2023-03-01T21:06:52;27.40;;;18.67;;
44664;SDS011;30382;48.802;9.388;2023-03-01T21:09:37;27.37;;;17.80;;
44664;SDS011;30382;48.802;9.388;2023-03-01T21:12:21;28.40;;;18.50;;
44664;SDS011;30382;48.802;9.388;2023-03-01T21:15:06;28.60;;;17.90;;
44664;SDS011;30382;48.802;9.388;2023-03-01T21:17:50;30.40;;;17.37;;
44664;SDS011;30382;48.802;9.388;2023-03-01T21:20:35;27.97;;;19.80;;
44664;SDS011;30382;48.802;9.388;2023-03-01T21:23:26;29.40;;;19.97;;
44664;SDS011;30382;48.802;9.388;2023-03-01T21:26:13;29.63;;;19.07;;
44664;SDS011;30382;48.802;9.388;2023-03-01T21:28:58;27.83;;;19.07;;
44664;SDS011;30382;48.802;9.388;2023-03-01T21:31:44;31.50;;;18.90;;
44664;SDS011;30382;48.802;9.388;2023-03-01T21:34:28;27.93;;;17.97;;
44664;SDS011;30382;48.802;9.388;2023-03-01T21:37:13;24.97;;;16.50;;
44664;SDS011;30382;48.802;9.388;2023-03-01T21:39:58;26.67;;;16.40;;
44664;SDS011;30382;48.802;9.388;2023-03-01T21:42:42;24.90;;;16.40;;
44664;SDS011;30382;48.802;9.388;2023-03-01T21:45:27;21.93;;;15.00;;
44664;SDS011;30382;48.802;9.388;2023-03-01T21:48:11;24.87;;;15.10;;
44664;SDS011;30382;48.802;9.388;2023-03-01T21:50:56;21.53;;;14.47;;
44664;SDS011;30382;48.802;9.388;2023-03-01T21:53:41;23.20;;;15.40;;
44664;SDS011;30382;48.802;9.388;2023-03-01T21:56:27;23.00;;;15.73;;
44664;SDS011;30382;48.802;9.388;2023-03-01T21:59:14;22.63;;;14.80;;
44664;SDS011;30382;48.802;9.388;2023-03-01T22:01:59;21.30;;;16.40;;
44664;SDS011;30382;48.802;9.388;2023-03-01T22:04:43;25.57;;;17.37;;
44664;SDS011;30382;48.802;9.388;2023-03-01T22:07:29;22.20;;;14.87;;
44664;SDS011;30382;48.802;9.388;2023-03-01T22:10:13;27.87;;;18.50;;
44664;SDS011;30382;48.802;9.388;2023-03-01T22:12:58;25.67;;;17.13;;
44664;SDS011;30382;48.802;9.388;2023-03-01T22:15:42;36.80;;;21.57;;
44664;SDS011;30382;48.802;9.388;2023-03-01T22:18:26;34.83;;;20.13;;
44664;SDS011;30382;48.802;9.388;2023-03-01T22:21:11;27.27;;;17.30;;
44664;SDS011;30382;48.802;9.388;2023-03-01T22:23:56;23.00;;;16.07;;
44664;SDS011;30382;48.802;9.388;2023-03-01T22:26:42;25.97;;;16.03;;
44664;SDS011;30382;48.802;9.388;2023-03-01T22:29:28;22.20;;;14.73;;
44664;SDS011;30382;48.802;9.388;2023-03-01T22:32:13;21.53;;;14.70;;
44664;SDS011;30382;48.802;9.388;2023-03-01T22:34:57;22.57;;;15.90;;
44664;SDS011;30382;48.802;9.388;2023-03-01T22:37:41;23.60;;;15.47;;
44664;SDS011;30382;48.802;9.388;2023-03-01T22:40:26;22.83;;;15.63;;
44664;SDS011;30382;48.802;9.388;2023-03-01T22:43:10;35.87;;;16.83;;
44664;SDS011;30382;48.802;9.388;2023-03-01T22:45:55;28.17;;;20.57;;
44664;SDS011;30382;48.802;9.388;2023-03-01T22:48:40;25.23;;;15.40;;
44664;SDS011;30382;48.802;9.388;2023-03-01T22:51:25;27.00;;;16.30;;
44664;SDS011;30382;48.802;9.388;2023-03-01T22:54:10;25.67;;;16.30;;
44664;SDS011;30382;48.802;9.388;2023-03-01T22:56:54;22.60;;;14.50;;
44664;SDS011;30382;48.802;9.388;2023-03-01T22:59:39;25.30;;;15.40;;
44664;SDS011;30382;48.802;9.388;2023-03-01T23:02:24;25.60;;;16.00;;
44664;SDS011;30382;48.802;9.388;2023-03-01T23:05:09;29.60;;;16.50;;
44664;SDS011;30382;48.802;9.388;2023-03-01T23:07:53;28.57;;;16.00;;
44664;SDS011;30382;48.802;9.388;2023-03-01T23:10:38;27.80;;;17.37;;
44664;SDS011;30382;48.802;9.388;2023-03-01T23:13:23;26.90;;;16.67;;
44664;SDS011;30382;48.802;9.388;2023-03-01T23:16:08;26.77;;;18.47;;
44664;SDS011;30382;48.802;9.388;2023-03-01T23:18:53;27.23;;;16.47;;
44664;SDS011;30382;48.802;9.388;2023-03-01T23:21:37;26.70;;;17.50;;
44664;SDS011;30382;48.802;9.388;2023-03-01T23:24:26;25.87;;;17.70;;
44664;SDS011;30382;48.802;9.388;2023-03-01T23:27:14;25.13;;;16.00;;
44664;SDS011;30382;48.802;9.388;2023-03-01T23:30:01;25.53;;;16.17;;
44664;SDS011;30382;48.802;9.388;2023-03-01T23:32:46;23.30;;;16.57;;
44664;SDS011;30382;48.802;9.388;2023-03-01T23:35:30;26.10;;;17.03;;
44664;SDS011;30382;48.802;9.388;2023-03-01T23:38:14;29.20;;;17.30;;
44664;SDS011;30382;48.802;9.388;2023-03-01T23:40:59;24.23;;;17.00;;
44664;SDS011;30382;48.802;9.388;2023-03-01T23:43:47;24.87;;;16.00;;
44664;SDS011;30382;48.802;9.388;2023-03-01T23:46:32;23.87;;;16.30;;
44664;SDS011;30382;48.802;9.388;2023-03-01T23:49:17;23.63;;;14.30;;
44664;SDS011;30382;48.802;9.388;2023-03-01T23:52:02;26.57;;;17.37;;
44664;SDS011;30382;48.802;9.388;2023-03-01T23:54:46;27.90;;;17.90;;
44664;SDS011;30382;48.802;9.388;2023-03-01T23:57:30;27.50;;;16.57;;
